createdAt,value
2019-05-18T00:00:44.732Z,100846.79
2019-05-18T00:03:16.284Z,100856.52
2019-05-18T00:05:48.141Z,100866.37
2019-05-18T00:08:19.702Z,100866.14
2019-05-18T00:10:52.379Z,100865.38
2019-05-18T00:13:24.234Z,100867.66
2019-05-18T00:15:55.788Z,100866.56
2019-05-18T00:18:27.445Z,100867.77
2019-05-18T00:20:59.153Z,100866.41
2019-05-18T00:23:30.751Z,100872.73
2019-05-18T00:26:02.415Z,100873.05
2019-05-18T00:28:35.600Z,100874.77
2019-05-18T00:31:07.256Z,100876.94
2019-05-18T00:33:38.805Z,100877.73
2019-05-18T00:36:10.771Z,100875.53
2019-05-18T00:38:42.423Z,100875.48
2019-05-18T00:41:13.981Z,100869.38
2019-05-18T00:43:45.539Z,100870.55
2019-05-18T00:46:16.978Z,100868.59
2019-05-18T00:48:48.533Z,100874.27
2019-05-18T00:51:23.158Z,100865.75
2019-05-18T00:53:53.788Z,100868.12
2019-05-18T00:56:25.602Z,100859.47
2019-05-18T00:58:57.104Z,100853.45
2019-05-18T01:01:28.973Z,100855.75
2019-05-18T01:04:00.619Z,100844.07
2019-05-18T01:06:32.277Z,100846.34
2019-05-18T01:09:05.271Z,100844.34
2019-05-18T01:11:36.921Z,100839.89
2019-05-18T01:14:08.605Z,100835.48
2019-05-18T01:16:39.949Z,100833.84
2019-05-18T01:19:11.492Z,100834.59
2019-05-18T01:21:43.535Z,100833.49
2019-05-18T01:24:15.088Z,100829.61
2019-05-18T01:26:46.943Z,100832.63
2019-05-18T01:29:18.606Z,100825.14
2019-05-18T01:31:50.265Z,100828.03
2019-05-18T01:34:21.922Z,100830.91
2019-05-18T01:36:53.568Z,100826.89
2019-05-18T01:39:24.940Z,100832.79
2019-05-18T01:41:56.579Z,100832.74
2019-05-18T01:44:28.135Z,100832.74
2019-05-18T01:46:59.990Z,100835.42
2019-05-18T01:49:31.750Z,100839.69
2019-05-18T01:52:03.313Z,100837.73
2019-05-18T01:54:34.754Z,100838.89
2019-05-18T01:57:06.535Z,100838.98
2019-05-18T01:59:38.161Z,100836.92
2019-05-18T02:02:10.126Z,100839.59
2019-05-18T02:04:41.981Z,100836.97
2019-05-18T02:07:13.614Z,100843.86
2019-05-18T02:09:45.090Z,100844.81
2019-05-18T02:12:16.943Z,100845.95
2019-05-18T02:14:48.604Z,100846.34
2019-05-18T02:17:20.297Z,100840.66
2019-05-18T02:19:51.582Z,100841.52
2019-05-18T02:22:23.564Z,100842.04
2019-05-18T02:24:55.119Z,100840.61
2019-05-18T02:27:27.209Z,100843.18
2019-05-18T02:29:58.980Z,100839.69
2019-05-18T02:32:31.012Z,100840.25
2019-05-18T02:35:02.982Z,100840.98
2019-05-18T02:37:34.828Z,100848.05
2019-05-18T02:40:07.108Z,100845.59
2019-05-18T02:42:38.559Z,100848.17
2019-05-18T02:45:10.314Z,100853.27
2019-05-18T02:47:42.074Z,100851.31
2019-05-18T02:50:13.608Z,100856.12
2019-05-18T02:52:45.382Z,100855.96
2019-05-18T02:55:17.035Z,100859.53
2019-05-18T02:57:48.895Z,100867.81
2019-05-18T03:00:20.459Z,100867.50
2019-05-18T03:02:52.414Z,100864.16
2019-05-18T03:05:24.072Z,100862.38
2019-05-18T03:07:56.040Z,100860.66
2019-05-18T03:10:27.641Z,100861.55
2019-05-18T03:12:59.332Z,100858.03
2019-05-18T03:15:30.844Z,100859.18
2019-05-18T03:18:02.346Z,100855.22
2019-05-18T03:20:34.308Z,100855.97
2019-05-18T03:23:05.882Z,100853.13
2019-05-18T03:25:37.307Z,100849.46
2019-05-18T03:28:08.958Z,100857.20
2019-05-18T03:30:40.732Z,100858.15
2019-05-18T03:33:12.269Z,100859.53
2019-05-18T03:35:43.984Z,100857.17
2019-05-18T03:38:15.590Z,100854.03
2019-05-18T03:40:47.136Z,100852.45
2019-05-18T03:43:18.989Z,100849.06
2019-05-18T03:45:50.861Z,100853.38
2019-05-18T03:48:22.510Z,100855.11
2019-05-18T03:50:53.958Z,100844.41
2019-05-18T03:53:27.154Z,100845.65
2019-05-18T03:55:58.911Z,100840.39
2019-05-18T03:58:30.367Z,100837.03
2019-05-18T04:01:02.340Z,100846.83
2019-05-18T04:03:33.975Z,100844.52
2019-05-18T04:06:05.690Z,100837.01
2019-05-18T04:08:37.607Z,100840.78
2019-05-18T04:11:09.461Z,100836.58
2019-05-18T04:13:41.221Z,100838.62
2019-05-18T04:16:12.978Z,100839.14
2019-05-18T04:18:44.837Z,100845.75
2019-05-18T04:21:16.392Z,100843.13
2019-05-18T04:23:48.262Z,100846.26
2019-05-18T04:26:19.792Z,100854.71
2019-05-18T04:28:51.663Z,100853.26
2019-05-18T04:31:23.110Z,100851.48
2019-05-18T04:33:54.970Z,100851.45
2019-05-18T04:36:26.932Z,100848.17
2019-05-18T04:38:58.485Z,100851.69
2019-05-18T04:41:30.973Z,100852.90
2019-05-18T04:44:02.722Z,100844.31
2019-05-18T04:46:34.580Z,100839.78
2019-05-18T04:49:10.739Z,100832.83
2019-05-18T04:51:42.411Z,100838.57
2019-05-18T04:54:14.459Z,100838.28
2019-05-18T04:56:45.803Z,100843.48
2019-05-18T04:59:17.563Z,100850.44
2019-05-18T05:01:56.415Z,100842.53
2019-05-18T05:04:28.045Z,100839.66
2019-05-18T05:06:59.497Z,100834.79
2019-05-18T05:09:31.351Z,100838.77
2019-05-18T05:12:04.349Z,100841.48
2019-05-18T05:14:36.101Z,100829.54
2019-05-18T05:17:07.455Z,100835.81
2019-05-18T05:19:39.202Z,100834.56
2019-05-18T05:22:11.074Z,100834.98
2019-05-18T05:24:45.095Z,100828.01
2019-05-18T05:27:19.301Z,100832.96
2019-05-18T05:29:50.899Z,100836.52
2019-05-18T05:32:22.602Z,100832.22
2019-05-18T05:34:54.466Z,100827.80
2019-05-18T05:37:45.470Z,100834.23
2019-05-18T05:40:19.079Z,100836.97
2019-05-18T05:42:50.722Z,100831.35
2019-05-18T05:45:22.804Z,100827.19
2019-05-18T05:47:54.780Z,100820.16
2019-05-18T05:50:35.196Z,100819.68
2019-05-18T05:53:00.419Z,100819.68
2019-05-18T05:55:32.959Z,100818.95
2019-05-18T05:58:04.446Z,100816.53
2019-05-18T06:00:36.191Z,100819.34
2019-05-18T06:03:08.498Z,100816.92
2019-05-18T06:05:42.483Z,100817.70
2019-05-18T06:08:17.045Z,100813.99
2019-05-18T06:10:53.308Z,100810.95
2019-05-18T06:13:25.825Z,100806.23
2019-05-18T06:15:57.471Z,100802.97
2019-05-18T06:18:29.079Z,100794.62
2019-05-18T06:21:00.752Z,100793.16
2019-05-18T06:23:32.731Z,100791.58
2019-05-18T06:26:04.546Z,100793.09
2019-05-18T06:28:36.398Z,100800.27
2019-05-18T06:31:08.301Z,100796.69
2019-05-18T06:33:39.740Z,100797.81
2019-05-18T06:36:11.774Z,100788.06
2019-05-18T06:38:43.594Z,100784.52
2019-05-18T06:41:15.313Z,100795.04
2019-05-18T06:43:46.753Z,100802.14
2019-05-18T06:46:18.257Z,100805.22
2019-05-18T06:48:49.896Z,100805.93
2019-05-18T06:51:21.478Z,100805.85
2019-05-18T06:54:11.268Z,100796.57
2019-05-18T06:56:43.042Z,100797.02
2019-05-18T06:59:16.408Z,100795.00
2019-05-18T07:01:48.238Z,100796.84
2019-05-18T07:05:22.374Z,100795.39
2019-05-18T07:07:53.841Z,100799.47
2019-05-18T07:10:25.271Z,100801.88
2019-05-18T07:12:57.111Z,100796.66
2019-05-18T07:15:28.545Z,100807.40
2019-05-18T07:18:01.974Z,100804.51
2019-05-18T07:20:34.597Z,100797.34
2019-05-18T07:23:06.494Z,100795.81
2019-05-18T07:25:39.124Z,100793.27
2019-05-18T07:28:10.996Z,100791.73
2019-05-18T07:30:43.181Z,100795.34
2019-05-18T07:33:17.168Z,100801.98
2019-05-18T07:35:49.656Z,100788.84
2019-05-18T07:38:21.187Z,100793.92
2019-05-18T07:41:12.617Z,100790.38
2019-05-18T07:43:44.517Z,100787.38
2019-05-18T07:46:15.840Z,100787.14
2019-05-18T07:48:53.472Z,100786.41
2019-05-18T07:51:37.124Z,100782.89
2019-05-18T07:54:07.333Z,100784.17
2019-05-18T07:57:05.815Z,100772.91
2019-05-18T07:59:42.044Z,100783.66
2019-05-18T08:02:16.900Z,100787.66
2019-05-18T08:05:08.231Z,100790.97
2019-05-18T08:07:46.541Z,100789.84
2019-05-18T08:10:22.530Z,100792.19
2019-05-18T08:13:06.578Z,100786.34
2019-05-18T08:16:07.884Z,100791.33
2019-05-18T08:18:46.599Z,100778.77
2019-05-18T08:21:33.092Z,100777.58
2019-05-18T08:24:17.367Z,100769.28
2019-05-18T08:26:54.761Z,100768.27
2019-05-18T08:29:35.335Z,100768.59
2019-05-18T08:32:17.129Z,100776.55
2019-05-18T08:38:04.885Z,100776.03
2019-05-18T08:40:57.066Z,100772.46
2019-05-18T08:43:34.640Z,100770.83
2019-05-18T08:49:37.840Z,100763.76
2019-05-18T08:52:14.124Z,100761.72
2019-05-18T08:54:52.905Z,100763.50
2019-05-18T08:57:53.126Z,100752.37
2019-05-18T09:00:39.813Z,100746.59
2019-05-18T09:03:22.762Z,100734.32
2019-05-18T09:06:04.625Z,100736.01
2019-05-18T09:08:51.044Z,100741.89
2019-05-18T09:11:34.908Z,100736.14
2019-05-18T09:17:11.968Z,100740.66
2019-05-18T09:19:45.863Z,100718.23
2019-05-18T09:22:25.136Z,100728.19
2019-05-18T09:24:57.990Z,100723.36
2019-05-18T09:27:36.733Z,100724.45
2019-05-18T09:30:15.349Z,100716.84
2019-05-18T09:32:56.419Z,100715.88
2019-05-18T09:35:31.549Z,100706.67
2019-05-18T09:38:07.739Z,100708.75
2019-05-18T09:40:51.848Z,100702.64
2019-05-18T09:43:31.008Z,100707.70
2019-05-18T09:46:06.019Z,100707.81
2019-05-18T09:49:16.152Z,100710.68
2019-05-18T09:51:57.052Z,100697.67
2019-05-18T09:54:35.680Z,100697.84
2019-05-18T09:57:27.683Z,100702.99
2019-05-18T10:00:24.793Z,100689.55
2019-05-18T10:03:14.321Z,100678.20
2019-05-18T10:05:51.262Z,100686.19
2019-05-18T10:08:50.940Z,100683.15
2019-05-18T10:14:38.038Z,100685.31
2019-05-18T10:17:34.752Z,100683.52
2019-05-18T10:20:19.850Z,100675.53
2019-05-18T10:23:12.476Z,100684.77
2019-05-18T10:25:51.818Z,100680.02
2019-05-18T10:28:26.837Z,100681.73
2019-05-18T10:31:03.566Z,100666.38
2019-05-18T10:33:53.767Z,100673.67
2019-05-18T10:36:26.103Z,100671.39
2019-05-18T10:39:03.930Z,100675.72
2019-05-18T10:41:42.707Z,100672.55
2019-05-18T10:44:19.337Z,100670.88
2019-05-18T10:46:55.487Z,100667.09
2019-05-18T10:49:32.588Z,100670.25
2019-05-18T10:52:18.297Z,100664.23
2019-05-18T10:54:54.544Z,100662.45
2019-05-18T10:57:31.613Z,100651.66
2019-05-18T11:00:17.886Z,100636.47
2019-05-18T11:02:51.463Z,100649.06
2019-05-18T11:05:24.855Z,100652.22
2019-05-18T11:07:58.376Z,100642.66
2019-05-18T11:10:37.655Z,100636.58
2019-05-18T11:13:31.520Z,100636.73
2019-05-18T11:16:31.848Z,100646.01
2019-05-18T11:19:16.410Z,100645.60
2019-05-18T11:22:04.806Z,100653.95
2019-05-18T11:25:01.797Z,100650.05
2019-05-18T15:10:16.185Z,100498.02
2019-05-18T15:12:47.808Z,100506.56
2019-05-18T15:15:24.201Z,100504.18
2019-05-18T15:17:58.383Z,100494.34
2019-05-18T15:20:33.758Z,100492.52
2019-05-18T15:23:11.307Z,100496.12
2019-05-18T15:25:51.198Z,100495.45
2019-05-18T15:28:35.203Z,100493.55
2019-05-18T15:31:26.188Z,100493.58
2019-05-18T15:34:13.917Z,100493.06
2019-05-18T15:37:04.911Z,100482.75
2019-05-18T15:39:55.300Z,100484.34
2019-05-18T15:42:49.188Z,100497.95
2019-05-18T15:45:48.143Z,100487.43
2019-05-18T15:48:40.630Z,100496.14
2019-05-18T15:52:04.929Z,100488.03
2019-05-18T15:54:57.922Z,100492.45
2019-05-18T15:58:04.626Z,100488.19
2019-05-18T16:00:47.994Z,100468.53
2019-05-18T16:03:53.532Z,100498.74
2019-05-18T16:06:38.330Z,100502.46
2019-05-18T16:09:30.886Z,100503.98
2019-05-18T16:12:03.083Z,100512.63
2019-05-18T16:14:34.916Z,100509.23
2019-05-18T16:17:06.580Z,100506.69
2019-05-18T16:19:38.229Z,100501.44
2019-05-18T16:22:15.626Z,100502.10
2019-05-18T16:24:55.893Z,100503.27
2019-05-18T16:27:42.946Z,100507.17
2019-05-18T16:30:26.913Z,100505.93
2019-05-18T16:33:15.235Z,100501.00
2019-05-18T16:36:01.575Z,100512.84
2019-05-18T16:39:00.936Z,100513.52
2019-05-18T16:41:36.169Z,100522.13
2019-05-18T16:44:19.105Z,100521.74
2019-05-18T16:47:31.887Z,100515.80
2019-05-18T16:50:10.767Z,100519.31
2019-05-18T16:52:50.189Z,100532.66
2019-05-18T16:55:37.881Z,100532.74
2019-05-18T16:58:20.930Z,100529.80
2019-05-18T17:00:56.258Z,100537.06
2019-05-18T17:03:33.099Z,100535.31
2019-05-18T17:06:11.815Z,100530.75
2019-05-18T17:09:17.754Z,100535.11
2019-05-18T17:12:01.893Z,100532.49
2019-05-18T17:14:59.115Z,100532.28
2019-05-18T17:17:37.414Z,100536.23
2019-05-18T17:20:30.438Z,100533.42
2019-05-18T17:23:19.044Z,100538.27
2019-05-18T17:25:53.319Z,100541.17
2019-05-18T17:28:28.879Z,100538.05
2019-05-18T17:31:03.945Z,100543.45
2019-05-18T17:33:43.717Z,100551.79
2019-05-18T17:36:30.749Z,100558.63
2019-05-18T17:39:12.784Z,100557.67
2019-05-18T17:41:51.434Z,100555.39
2019-05-18T17:44:25.743Z,100559.77
2019-05-18T17:47:02.336Z,100570.91
2019-05-18T17:49:44.467Z,100575.38
2019-05-18T17:52:27.937Z,100579.89
2019-05-18T17:55:05.163Z,100574.41
2019-05-18T17:57:50.045Z,100581.64
2019-05-18T18:00:27.418Z,100584.88
2019-05-18T18:03:12.542Z,100588.48
2019-05-18T18:05:47.671Z,100593.91
2019-05-18T18:08:22.304Z,100583.67
2019-05-18T18:13:58.870Z,100588.03
2019-05-18T18:16:34.577Z,100582.38
2019-05-18T18:19:07.208Z,100584.50
2019-05-18T18:21:43.490Z,100588.48
2019-05-18T18:24:23.884Z,100588.36
2019-05-18T18:26:58.991Z,100594.43
2019-05-18T18:29:33.038Z,100593.85
2019-05-18T18:32:07.714Z,100599.52
2019-05-18T18:34:40.332Z,100598.89
2019-05-18T18:37:18.234Z,100602.45
2019-05-18T18:39:54.521Z,100595.93
2019-05-18T18:42:39.412Z,100605.67
2019-05-18T18:45:14.416Z,100603.88
2019-05-18T18:47:47.398Z,100603.47
2019-05-18T18:50:21.280Z,100604.73
2019-05-18T18:52:53.671Z,100601.98
2019-05-18T18:55:28.577Z,100604.94
2019-05-18T18:58:04.443Z,100612.64
2019-05-18T19:00:41.419Z,100612.94
2019-05-18T19:03:34.845Z,100607.90
2019-05-18T19:06:07.357Z,100612.42
2019-05-18T19:09:01.727Z,100608.31
2019-05-18T19:11:41.755Z,100614.17
2019-05-18T19:14:16.327Z,100613.88
2019-05-18T19:17:08.231Z,100623.14
2019-05-18T19:19:51.426Z,100616.55
2019-05-18T19:22:28.867Z,100614.24
2019-05-18T19:25:43.021Z,100617.98
2019-05-18T19:28:15.319Z,100622.22
2019-05-18T19:30:47.730Z,100620.31
2019-05-18T19:33:19.369Z,100618.83
2019-05-18T19:35:55.124Z,100619.55
2019-05-18T19:38:27.779Z,100618.83
2019-05-18T19:41:02.526Z,100613.56
2019-05-18T19:43:34.411Z,100614.62
2019-05-18T19:46:06.361Z,100613.20
2019-05-18T19:48:38.127Z,100617.42
2019-05-18T19:51:16.396Z,100616.87
2019-05-18T19:53:50.848Z,100618.77
2019-05-18T19:56:23.221Z,100615.11
2019-05-18T19:58:54.785Z,100628.01
2019-05-18T20:01:27.459Z,100626.81
2019-05-18T20:03:59.734Z,100629.50
2019-05-18T20:06:32.914Z,100631.86
2019-05-18T20:09:25.250Z,100635.06
2019-05-18T20:11:57.309Z,100630.64
2019-05-18T20:14:29.118Z,100631.17
2019-05-18T20:17:01.789Z,100629.34
2019-05-18T20:19:39.064Z,100633.98
2019-05-18T20:22:06.818Z,100635.41
2019-05-18T20:24:37.937Z,100632.28
2019-05-18T20:27:09.827Z,100635.51
2019-05-18T20:29:43.144Z,100636.00
2019-05-18T20:32:14.846Z,100646.31
2019-05-18T20:34:46.401Z,100643.05
2019-05-18T20:37:24.115Z,100639.75
2019-05-18T20:39:55.452Z,100641.70
2019-05-18T20:42:28.271Z,100637.46
2019-05-18T20:44:59.888Z,100637.89
2019-05-18T20:47:31.966Z,100636.27
2019-05-18T20:50:05.543Z,100634.84
2019-05-18T20:52:38.738Z,100639.26
2019-05-18T20:55:10.202Z,100640.27
2019-05-18T20:57:43.995Z,100639.55
2019-05-18T21:00:15.854Z,100644.95
2019-05-18T21:02:47.712Z,100645.27
2019-05-18T21:05:19.470Z,100642.24
2019-05-18T21:07:51.442Z,100643.45
2019-05-18T21:10:22.884Z,100643.20
2019-05-18T21:12:54.947Z,100647.37
2019-05-18T21:15:26.819Z,100652.52
2019-05-18T21:17:59.183Z,100655.30
2019-05-18T21:20:30.645Z,100662.66
2019-05-18T21:23:02.192Z,100655.34
2019-05-18T21:25:34.146Z,100655.69
2019-05-18T21:28:07.545Z,100651.56
2019-05-18T21:30:39.206Z,100648.16
2019-05-18T21:33:11.061Z,100650.59
2019-05-18T21:35:42.713Z,100649.50
2019-05-18T21:38:14.677Z,100644.00
2019-05-18T21:40:47.667Z,100642.78
2019-05-18T21:43:19.527Z,100642.78
2019-05-18T21:45:51.195Z,100641.08
2019-05-18T21:48:22.827Z,100643.76
2019-05-18T21:50:54.480Z,100645.45
2019-05-18T21:53:26.955Z,100652.41
2019-05-18T21:55:58.822Z,100647.16
2019-05-18T21:58:30.475Z,100652.03
2019-05-18T22:01:02.137Z,100650.55
2019-05-18T22:03:34.115Z,100660.57
2019-05-18T22:06:05.957Z,100656.85
2019-05-18T22:08:37.810Z,100658.56
2019-05-18T22:11:09.570Z,100656.85
2019-05-18T22:13:43.479Z,100651.34
2019-05-18T22:16:15.236Z,100653.69
2019-05-18T22:18:47.608Z,100652.20
2019-05-18T22:21:18.849Z,100655.14
2019-05-18T22:23:50.615Z,100654.02
2019-05-18T22:26:22.477Z,100652.79
2019-05-18T22:28:54.442Z,100655.31
2019-05-18T22:31:25.990Z,100648.97
2019-05-18T22:33:57.959Z,100644.05
2019-05-18T22:36:29.600Z,100640.39
2019-05-18T22:39:07.195Z,100647.20
2019-05-18T22:41:38.748Z,100641.35
2019-05-18T22:44:10.604Z,100642.52
2019-05-18T22:46:42.061Z,100639.95
2019-05-18T22:49:14.021Z,100647.01
2019-05-18T22:51:45.891Z,100653.08
2019-05-18T22:54:17.741Z,100651.74
2019-05-18T22:56:49.317Z,100651.14
2019-05-18T22:59:20.961Z,100657.46
2019-05-18T23:01:52.311Z,100650.60
2019-05-18T23:04:23.860Z,100650.55
2019-05-18T23:06:55.607Z,100652.35
2019-05-18T23:09:27.069Z,100648.92
2019-05-18T23:11:58.726Z,100648.55
2019-05-18T23:14:30.383Z,100645.48
2019-05-18T23:17:01.830Z,100654.18
2019-05-18T23:19:33.996Z,100653.01
2019-05-18T23:22:05.548Z,100659.53
2019-05-18T23:24:37.095Z,100665.38
2019-05-18T23:27:12.484Z,100659.33
2019-05-18T23:29:44.092Z,100660.66
2019-05-18T23:32:16.152Z,100660.92
2019-05-18T23:34:48.116Z,100659.19
2019-05-18T23:37:19.782Z,100670.30
2019-05-18T23:39:53.685Z,100682.31
2019-05-18T23:42:25.955Z,100682.04
2019-05-18T23:44:58.738Z,100681.02
2019-05-18T23:47:30.902Z,100687.56
2019-05-18T23:50:02.866Z,100682.66
2019-05-18T23:52:34.316Z,100677.30
2019-05-18T23:55:06.897Z,100674.70
2019-05-18T23:57:38.449Z,100674.00
